createdAt,value
2023-02-16T00:00:51.961Z,5.17
2023-02-16T00:03:37.214Z,5.14
2023-02-16T00:06:24.140Z,5.13
2023-02-16T00:09:09.297Z,5.11
2023-02-16T00:12:13.413Z,5.09
2023-02-16T00:14:58.495Z,5.07
2023-02-16T00:17:43.849Z,5.07
2023-02-16T00:20:32.007Z,5.06
2023-02-16T00:23:17.495Z,5.04
2023-02-16T00:26:03.162Z,5.01
2023-02-16T00:28:54.209Z,4.98
2023-02-16T00:31:39.940Z,4.96
2023-02-16T00:34:25.334Z,4.90
2023-02-16T00:37:13.821Z,4.88
2023-02-16T00:40:01.314Z,4.87
2023-02-16T00:42:48.057Z,4.87
2023-02-16T00:45:37.346Z,4.85
2023-02-16T00:48:23.632Z,4.83
2023-02-16T00:51:25.182Z,4.83
2023-02-16T00:54:11.453Z,4.81
2023-02-16T00:56:57.662Z,4.77
2023-02-16T00:59:43.093Z,4.76
2023-02-16T01:02:29.155Z,4.72
2023-02-16T01:05:15.303Z,4.71
2023-02-16T01:08:19.668Z,4.72
2023-02-16T01:11:09.904Z,4.71
2023-02-16T01:14:00.840Z,4.69
2023-02-16T01:16:46.064Z,4.66
2023-02-16T01:19:31.320Z,4.65
2023-02-16T01:22:17.173Z,4.62
2023-02-16T01:25:02.286Z,4.61
2023-02-16T01:27:48.574Z,4.63
2023-02-16T01:30:33.796Z,4.64
2023-02-16T01:33:20.283Z,4.63
2023-02-16T01:36:06.875Z,4.62
2023-02-16T01:38:52.258Z,4.60
2023-02-16T01:42:05.937Z,4.57
2023-02-16T01:45:01.762Z,4.57
2023-02-16T01:47:57.390Z,4.56
2023-02-16T01:51:11.873Z,4.53
2023-02-16T01:54:27.501Z,4.48
2023-02-16T01:57:18.683Z,4.47
2023-02-16T02:00:12.567Z,4.47
2023-02-16T02:03:24.599Z,4.44
2023-02-16T02:06:18.029Z,4.42
2023-02-16T02:09:10.548Z,4.45
2023-02-16T02:12:22.866Z,4.45
2023-02-16T02:15:09.253Z,4.44
2023-02-16T02:17:54.457Z,4.43
2023-02-16T02:21:36.406Z,4.40
2023-02-16T02:24:49.683Z,4.37
2023-02-16T02:27:40.219Z,4.32
2023-02-16T02:30:54.767Z,4.27
2023-02-16T02:34:04.008Z,4.24
2023-02-16T02:37:19.405Z,4.23
2023-02-16T02:40:13.580Z,4.24
2023-02-16T02:43:13.488Z,4.21
2023-02-16T02:46:18.999Z,4.20
2023-02-16T02:49:05.227Z,4.17
2023-02-16T02:51:51.249Z,4.18
2023-02-16T02:54:58.779Z,4.15
2023-02-16T02:58:14.163Z,4.14
2023-02-16T03:01:00.206Z,4.13
2023-02-16T03:03:53.900Z,4.11
2023-02-16T03:06:44.272Z,4.14
2023-02-16T03:09:29.626Z,4.14
2023-02-16T03:12:35.720Z,4.16
2023-02-16T03:15:23.916Z,4.14
2023-02-16T03:18:30.994Z,4.14
2023-02-16T03:21:34.841Z,4.14
2023-02-16T03:24:47.639Z,4.15
2023-02-16T03:27:57.887Z,4.13
2023-02-16T03:30:45.214Z,4.08
2023-02-16T03:33:31.296Z,4.06
2023-02-16T03:36:16.699Z,4.05
2023-02-16T03:39:03.208Z,4.05
2023-02-16T03:41:51.408Z,4.04
2023-02-16T03:44:36.769Z,4.00
2023-02-16T03:47:22.162Z,3.99
2023-02-16T03:50:08.267Z,3.97
2023-02-16T03:53:06.502Z,3.93
2023-02-16T03:55:51.669Z,3.92
2023-02-16T03:58:36.847Z,3.91
2023-02-16T04:01:22.702Z,3.90
2023-02-16T04:04:08.345Z,3.84
2023-02-16T04:06:53.773Z,3.83
2023-02-16T04:09:39.037Z,3.85
2023-02-16T04:12:36.462Z,3.85
2023-02-16T04:15:24.406Z,3.84
2023-02-16T04:18:09.925Z,3.83
2023-02-16T04:20:55.207Z,3.80
2023-02-16T04:23:40.731Z,3.81
2023-02-16T04:26:26.001Z,3.82
2023-02-16T04:29:11.124Z,3.84
2023-02-16T04:31:56.462Z,3.80
2023-02-16T04:34:41.682Z,3.78
2023-02-16T04:37:27.236Z,3.76
2023-02-16T04:40:14.245Z,3.72
2023-02-16T04:42:59.508Z,3.70
2023-02-16T04:45:44.630Z,3.70
2023-02-16T04:48:30.109Z,3.70
2023-02-16T04:51:15.288Z,3.66
2023-02-16T04:54:00.907Z,3.62
2023-02-16T04:56:47.063Z,3.61
2023-02-16T04:59:32.280Z,3.55
2023-02-16T05:02:17.716Z,3.54
2023-02-16T05:05:03.241Z,3.54
2023-02-16T05:07:49.175Z,3.55
2023-02-16T05:10:34.317Z,3.56
2023-02-16T05:13:38.340Z,3.55
2023-02-16T05:16:24.777Z,3.52
2023-02-16T05:19:10.153Z,3.54
2023-02-16T05:21:55.345Z,3.54
2023-02-16T05:24:41.194Z,3.51
2023-02-16T05:27:30.003Z,3.50
2023-02-16T05:30:15.490Z,3.47
2023-02-16T05:33:00.723Z,3.47
2023-02-16T05:35:45.998Z,3.47
2023-02-16T05:38:31.304Z,3.46
2023-02-16T05:41:25.796Z,3.45
2023-02-16T05:44:11.835Z,3.46
2023-02-16T05:46:57.114Z,3.42
2023-02-16T05:49:42.386Z,3.42
2023-02-16T05:52:27.702Z,3.41
2023-02-16T05:55:13.123Z,3.42
2023-02-16T05:57:58.431Z,3.42
2023-02-16T06:00:43.976Z,3.41
2023-02-16T06:03:29.180Z,3.39
2023-02-16T06:06:14.724Z,3.37
2023-02-16T06:09:01.304Z,3.34
2023-02-16T06:11:46.559Z,3.34
2023-02-16T06:14:31.815Z,3.35
2023-02-16T06:17:17.267Z,3.34
2023-02-16T06:20:03.252Z,3.34
2023-02-16T06:22:48.753Z,3.36
2023-02-16T06:25:34.461Z,3.37
2023-02-16T06:28:20.052Z,3.37
2023-02-16T06:31:05.577Z,3.38
2023-02-16T06:33:51.344Z,3.38
2023-02-16T06:36:36.436Z,3.38
2023-02-16T06:39:21.812Z,3.37
2023-02-16T06:42:07.131Z,3.38
2023-02-16T06:44:52.452Z,3.40
2023-02-16T06:47:38.424Z,3.40
2023-02-16T06:50:23.474Z,3.46
2023-02-16T06:53:09.071Z,3.52
2023-02-16T06:55:54.377Z,3.52
2023-02-16T06:58:39.443Z,3.56
2023-02-16T07:01:26.094Z,3.60
2023-02-16T07:04:11.755Z,3.65
2023-02-16T07:06:56.896Z,3.67
2023-02-16T07:09:42.270Z,3.70
2023-02-16T07:12:27.581Z,3.71
2023-02-16T07:15:13.200Z,3.72
2023-02-16T07:17:58.633Z,3.75
2023-02-16T07:20:44.283Z,3.79
2023-02-16T07:23:29.600Z,3.84
2023-02-16T07:26:14.955Z,3.87
2023-02-16T07:29:00.275Z,3.95
2023-02-16T07:31:45.918Z,3.97
2023-02-16T07:34:31.583Z,3.98
2023-02-16T07:37:16.831Z,4.01
2023-02-16T07:40:02.136Z,4.05
2023-02-16T07:42:48.015Z,4.10
2023-02-16T07:45:33.923Z,4.09
2023-02-16T07:48:19.830Z,4.13
2023-02-16T07:51:05.797Z,4.20
2023-02-16T07:53:51.359Z,4.32
2023-02-16T07:56:36.885Z,4.39
2023-02-16T07:59:22.434Z,4.43
2023-02-16T08:02:14.282Z,4.49
2023-02-16T08:05:00.343Z,4.57
2023-02-16T08:07:46.838Z,4.60
2023-02-16T08:10:32.576Z,4.63
2023-02-16T08:13:17.813Z,4.67
2023-02-16T08:16:08.238Z,4.75
2023-02-16T08:18:56.266Z,4.80
2023-02-16T08:21:41.947Z,4.82
2023-02-16T08:24:27.133Z,4.87
2023-02-16T08:27:12.552Z,4.90
2023-02-16T08:29:57.669Z,4.92
2023-02-16T08:32:43.546Z,4.97
2023-02-16T08:35:31.968Z,4.97
2023-02-16T08:38:17.472Z,5.06
2023-02-16T08:41:03.035Z,5.20
2023-02-16T08:43:49.285Z,5.36
2023-02-16T08:46:36.061Z,5.53
2023-02-16T08:49:23.677Z,5.67
2023-02-16T08:52:09.975Z,5.75
2023-02-16T08:54:55.493Z,5.90
2023-02-16T08:57:40.716Z,6.55
2023-02-16T09:00:34.896Z,7.50
2023-02-16T09:03:20.176Z,8.43
2023-02-16T09:06:06.336Z,9.53
2023-02-16T09:08:53.700Z,9.75
2023-02-16T09:11:39.374Z,10.14
2023-02-16T09:14:24.843Z,10.04
2023-02-16T09:17:09.877Z,9.73
2023-02-16T09:19:55.395Z,9.34
2023-02-16T09:25:35.833Z,10.78
2023-02-16T09:28:21.451Z,11.63
2023-02-16T09:31:14.417Z,11.22
2023-02-16T09:34:02.622Z,10.45
2023-02-16T09:36:48.699Z,9.93
2023-02-16T09:39:33.990Z,9.61
2023-02-16T09:42:33.985Z,9.45
2023-02-16T09:45:21.436Z,9.34
2023-02-16T09:48:23.012Z,9.26
2023-02-16T09:51:11.495Z,9.19
2023-02-16T09:54:04.193Z,9.38
2023-02-16T09:56:56.974Z,9.84
2023-02-16T10:00:04.507Z,9.90
2023-02-16T10:03:09.341Z,10.02
2023-02-16T10:06:14.495Z,9.95
2023-02-16T10:09:11.382Z,9.92
2023-02-16T10:12:11.008Z,9.83
2023-02-16T10:15:13.980Z,9.61
2023-02-16T10:18:22.860Z,9.50
2023-02-16T10:21:17.718Z,9.50
2023-02-16T10:24:07.628Z,9.32
2023-02-16T10:27:08.216Z,9.38
2023-02-16T10:29:54.921Z,9.32
2023-02-16T10:32:55.382Z,9.35
2023-02-16T10:35:47.530Z,9.36
2023-02-16T10:39:20.309Z,9.40
2023-02-16T10:42:21.429Z,9.44
2023-02-16T10:45:21.155Z,9.52
2023-02-16T10:48:06.442Z,9.86
2023-02-16T10:51:00.897Z,9.99
2023-02-16T10:53:50.406Z,10.07
2023-02-16T10:56:38.792Z,10.10
2023-02-16T10:59:31.618Z,9.90
2023-02-16T11:02:25.266Z,9.92
2023-02-16T11:05:32.168Z,10.06
2023-02-16T11:08:20.524Z,10.05
2023-02-16T11:11:10.145Z,10.05
2023-02-16T11:14:03.315Z,10.28
2023-02-16T11:17:04.094Z,10.38
2023-02-16T11:20:05.488Z,10.27
2023-02-16T11:22:51.614Z,10.21
2023-02-16T11:25:38.046Z,10.14
2023-02-16T11:28:33.743Z,10.26
2023-02-16T11:31:33.534Z,10.43
2023-02-16T11:34:31.651Z,10.42
2023-02-16T11:37:25.378Z,10.51
2023-02-16T11:40:22.429Z,10.60
2023-02-16T11:43:17.833Z,10.64
2023-02-16T11:46:07.942Z,10.73
2023-02-16T11:48:53.726Z,10.89
2023-02-16T11:51:38.902Z,11.00
2023-02-16T11:54:24.390Z,11.05
2023-02-16T11:57:15.680Z,11.07
2023-02-16T12:00:09.138Z,11.20
2023-02-16T12:03:24.980Z,11.36
2023-02-16T12:06:59.919Z,11.44
2023-02-16T12:09:57.767Z,11.40
2023-02-16T12:13:20.360Z,11.30
2023-02-16T12:16:34.596Z,11.34
2023-02-16T12:19:46.189Z,11.40
2023-02-16T12:22:48.736Z,11.48
2023-02-16T12:25:52.986Z,11.52
2023-02-16T12:28:45.851Z,11.46
2023-02-16T12:31:47.672Z,11.42
2023-02-16T12:34:52.226Z,11.51
2023-02-16T12:37:53.980Z,11.54
2023-02-16T12:41:11.446Z,11.69
2023-02-16T12:44:02.876Z,11.87
2023-02-16T12:46:56.826Z,11.79
2023-02-16T12:50:00.966Z,11.39
2023-02-16T12:52:53.978Z,11.16
2023-02-16T12:55:56.043Z,11.06
2023-02-16T12:59:00.443Z,10.94
2023-02-16T13:01:48.194Z,11.02
2023-02-16T13:04:50.438Z,11.18
2023-02-16T13:07:37.289Z,11.37
2023-02-16T13:11:00.135Z,11.52
2023-02-16T13:13:47.769Z,11.68
2023-02-16T13:16:51.953Z,11.63
2023-02-16T13:19:36.809Z,11.58
2023-02-16T13:22:52.920Z,11.53
2023-02-16T13:26:22.742Z,11.67
2023-02-16T13:29:47.587Z,11.82
2023-02-16T13:32:56.692Z,11.95
2023-02-16T13:36:03.433Z,11.98
2023-02-16T13:39:00.665Z,12.01
2023-02-16T13:41:57.434Z,12.00
2023-02-16T13:44:47.772Z,11.88
2023-02-16T13:47:38.453Z,11.81
2023-02-16T13:50:28.270Z,11.83
2023-02-16T13:53:18.571Z,11.88
2023-02-16T13:56:22.511Z,11.98
2023-02-16T13:59:17.315Z,11.95
2023-02-16T14:02:03.377Z,11.85
2023-02-16T14:04:50.445Z,11.85
2023-02-16T14:07:38.276Z,11.85
2023-02-16T14:10:55.858Z,11.85
2023-02-16T14:13:47.169Z,11.87
2023-02-16T14:16:34.521Z,11.88
2023-02-16T14:19:25.828Z,11.90
2023-02-16T14:22:12.224Z,11.88
2023-02-16T14:25:01.093Z,11.86
2023-02-16T14:28:05.602Z,11.84
2023-02-16T14:30:56.871Z,11.84
2023-02-16T14:34:15.604Z,11.85
2023-02-16T14:37:16.297Z,11.84
2023-02-16T14:40:48.271Z,11.83
2023-02-16T14:43:40.744Z,11.83
2023-02-16T14:46:52.094Z,11.84
2023-02-16T14:50:09.307Z,11.81
2023-02-16T14:53:13.164Z,11.80
2023-02-16T14:56:26.717Z,11.74
2023-02-16T14:59:33.104Z,11.70
2023-02-16T15:02:33.821Z,11.68
2023-02-16T15:05:29.646Z,11.67
2023-02-16T15:08:23.308Z,11.70
2023-02-16T15:11:23.016Z,11.71
2023-02-16T15:14:11.029Z,11.71
2023-02-16T15:16:57.907Z,11.71
2023-02-16T15:19:44.129Z,11.71
2023-02-16T15:22:29.827Z,11.68
2023-02-16T15:25:29.338Z,11.67
2023-02-16T15:28:25.892Z,11.63
2023-02-16T15:31:24.007Z,11.59
2023-02-16T15:34:26.288Z,11.54
2023-02-16T15:37:28.663Z,11.51
2023-02-16T15:40:25.468Z,11.48
2023-02-16T15:43:19.548Z,11.46
2023-02-16T15:46:08.100Z,11.42
2023-02-16T15:48:54.571Z,11.40
2023-02-16T15:51:41.445Z,11.35
2023-02-16T15:54:30.626Z,11.30
2023-02-16T15:57:38.051Z,11.24
2023-02-16T16:00:24.918Z,11.20
2023-02-16T16:03:15.602Z,11.15
2023-02-16T16:06:06.401Z,11.11
2023-02-16T16:08:51.941Z,11.06
2023-02-16T16:11:37.793Z,11.03
2023-02-16T16:14:24.247Z,10.97
2023-02-16T16:17:13.918Z,10.92
2023-02-16T16:20:24.555Z,10.86
2023-02-16T16:23:16.445Z,10.78
2023-02-16T16:26:01.708Z,10.73
2023-02-16T16:28:47.583Z,10.69
2023-02-16T16:31:38.492Z,10.65
2023-02-16T16:34:38.924Z,10.59
2023-02-16T16:37:29.188Z,10.55
2023-02-16T16:40:26.337Z,10.52
2023-02-16T16:43:18.757Z,10.49
2023-02-16T16:46:20.136Z,10.45
2023-02-16T16:49:15.731Z,10.43
2023-02-16T16:52:00.819Z,10.39
2023-02-16T16:54:48.912Z,10.36
2023-02-16T16:57:33.940Z,10.34
2023-02-16T17:00:20.789Z,10.33
2023-02-16T17:03:08.331Z,10.31
2023-02-16T17:05:53.531Z,10.28
2023-02-16T17:08:38.953Z,10.26
2023-02-16T17:11:24.407Z,10.26
2023-02-16T17:14:20.779Z,10.26
2023-02-16T17:17:08.622Z,10.27
2023-02-16T17:19:54.149Z,10.29
2023-02-16T17:22:39.565Z,10.31
2023-02-16T17:25:24.646Z,10.34
2023-02-16T17:28:11.810Z,10.34
2023-02-16T17:30:57.474Z,10.33
2023-02-16T17:33:43.026Z,10.33
2023-02-16T17:36:28.749Z,10.34
2023-02-16T17:39:14.116Z,10.37
2023-02-16T17:42:00.484Z,10.36
2023-02-16T17:44:45.897Z,10.34
2023-02-16T17:47:56.236Z,10.33
2023-02-16T17:50:41.713Z,10.30
2023-02-16T17:53:27.790Z,10.31
2023-02-16T17:56:15.539Z,10.30
2023-02-16T17:59:01.074Z,10.27
2023-02-16T18:01:46.637Z,10.27
2023-02-16T18:04:34.089Z,10.26
2023-02-16T18:07:19.674Z,10.26
2023-02-16T18:10:05.858Z,10.24
2023-02-16T18:12:51.094Z,10.20
2023-02-16T18:15:36.513Z,10.20
2023-02-16T18:18:21.968Z,10.16
2023-02-16T18:21:07.502Z,10.16
2023-02-16T18:23:52.997Z,10.14
2023-02-16T18:26:38.190Z,10.12
2023-02-16T18:29:23.660Z,10.10
2023-02-16T18:32:09.026Z,10.08
2023-02-16T18:34:54.505Z,10.05
2023-02-16T18:37:39.832Z,10.04
2023-02-16T18:40:25.224Z,10.02
2023-02-16T18:43:11.414Z,10.01
2023-02-16T18:45:56.750Z,9.95
2023-02-16T18:48:41.972Z,9.96
2023-02-16T18:51:29.312Z,9.95
2023-02-16T18:54:14.652Z,9.93
2023-02-16T18:56:59.995Z,9.90
2023-02-16T18:59:45.253Z,9.88
2023-02-16T19:02:30.454Z,9.87
2023-02-16T19:05:15.834Z,9.86
2023-02-16T19:08:01.391Z,9.88
2023-02-16T19:10:49.932Z,9.88
2023-02-16T19:13:35.165Z,9.86
2023-02-16T19:16:20.466Z,9.84
2023-02-16T19:19:06.929Z,9.83
2023-02-16T19:21:52.073Z,9.86
2023-02-16T19:24:37.444Z,9.82
2023-02-16T19:27:23.280Z,9.83
2023-02-16T19:30:09.380Z,9.84
